Bartlett, Nebraska
Current Conditions -  °F | °C
As of 2:55 PM on Tuesday 25 Nov 2014 (Local Time) from KBVN Reporting Station
Clear Clear  
Wind Chill: 40°   Ceiling: Unl
Heat Index: 45°   Visibility: 10mi
Dew Point: 23°   Wind: 10mph
Humidity: 41%   Direction: 200°SSW
Pressure: 29.87"   Gusts: NA
Location:  41.89°N, 98.55°W
Report Text: KBVN 252055Z AUTO 20009KT 10SM CLR 07/M05 A2987 RMK AO2 T00721052
Loading
Personal Weather Stations






























Interactive Weather Map New forecast layout! Learn more

10-Day Weather Forecast

Advertisements
Track Severe Weather on mobile